Time;durP1;ratioP1;P1;durP2;ratioP2;P2;SDS_P1;SDS_P2;PMS_P1;PMS_P2;Temp;Humidity;BMP_temperature;BMP_pressure;BME280_temperature;BME280_humidity;BME280_pressure;Samples;Min_cycle;Max_cycle;Signal;HPM_P1;HPM_P2
2024/01/03 00:00:27;;;;;;;1.30;0.50;;;7.90;99.90;;;;;;5011093;28;20899;-65
2024/01/03 00:02:53;;;;;;;1.47;0.60;;;7.80;99.90;;;;;;5025977;28;20477;-65
2024/01/03 00:05:37;;;;;;;1.20;0.67;;;8.80;99.90;;;;;;5006107;28;20440;-68
2024/01/03 00:08:05;;;;;;;1.00;0.50;;;7.80;99.90;;;;;;5013900;28;20465;-66
2024/01/03 00:10:49;;;;;;;1.10;0.60;;;7.70;99.90;;;;;;5016766;28;20896;-65
2024/01/03 00:13:49;;;;;;;1.10;0.50;;;7.70;99.90;;;;;;5008596;28;20500;-65
2024/01/03 00:16:20;;;;;;;1.23;0.50;;;7.70;99.90;;;;;;4945018;28;20462;-65
2024/01/03 00:18:51;;;;;;;1.33;0.77;;;8.80;99.90;;;;;;5005110;28;20544;-66
2024/01/03 00:21:25;;;;;;;2.50;0.50;;;7.70;99.90;;;;;;5011578;28;20497;-66
2024/01/03 00:23:58;;;;;;;2.80;0.83;;;6.50;99.90;;;;;;5017697;28;20417;-66
2024/01/03 00:26:28;;;;;;;2.70;0.60;;;7.70;99.90;;;;;;5012291;28;20426;-66
2024/01/03 00:28:53;;;;;;;1.20;0.60;;;7.60;99.90;;;;;;5012359;28;20989;-65
2024/01/03 00:31:40;;;;;;;4.10;0.70;;;8.60;99.90;;;;;;5014814;28;20463;-66
2024/01/03 00:34:21;;;;;;;2.67;0.90;;;7.70;99.90;;;;;;5029196;28;20186;-66
2024/01/03 00:36:48;;;;;;;1.77;0.63;;;9.20;99.90;;;;;;5030020;28;20812;-66
2024/01/03 00:39:13;;;;;;;1.47;0.67;;;8.60;99.90;;;;;;5014419;28;20430;-65
2024/01/03 00:41:39;;;;;;;1.67;0.73;;;9.60;99.90;;;;;;5030320;28;20527;-66
2024/01/03 00:44:04;;;;;;;1.40;0.70;;;8.70;99.90;;;;;;5019914;28;20198;-66
2024/01/03 00:46:30;;;;;;;2.83;1.03;;;8.80;99.90;;;;;;5018132;28;20183;-66
2024/01/03 00:48:55;;;;;;;1.30;0.53;;;9.20;99.90;;;;;;5031972;28;20658;-66
2024/01/03 00:51:21;;;;;;;3.13;1.23;;;8.70;99.90;;;;;;5016989;28;20190;-66
2024/01/03 00:53:46;;;;;;;3.47;1.10;;;7.70;99.90;;;;;;5019428;28;20229;-66
2024/01/03 00:56:12;;;;;;;3.97;1.50;;;7.60;99.90;;;;;;5010670;28;20537;-66
2024/01/03 00:58:38;;;;;;;2.03;0.80;;;7.60;99.90;;;;;;5019237;28;20221;-66
2024/01/03 01:01:04;;;;;;;2.50;1.00;;;7.50;99.90;;;;;;5014830;28;20183;-66
2024/01/03 01:03:30;;;;;;;1.67;0.70;;;9.40;99.90;;;;;;5008503;28;20632;-65
2024/01/03 01:05:55;;;;;;;6.60;0.77;;;7.50;99.90;;;;;;4999213;28;20294;-65
2024/01/03 01:08:21;;;;;;;1.43;0.60;;;9.50;99.90;;;;;;5031172;28;20185;-65
2024/01/03 01:10:46;;;;;;;1.73;0.80;;;8.70;99.90;;;;;;5030970;28;20269;-65
2024/01/03 01:13:12;;;;;;;1.67;0.67;;;9.70;99.90;;;;;;5023684;28;20258;-65
2024/01/03 01:15:37;;;;;;;4.03;1.20;;;8.70;99.90;;;;;;5011135;28;20183;-65
2024/01/03 01:18:03;;;;;;;1.30;0.70;;;7.40;99.90;;;;;;5020545;28;20187;-65
2024/01/03 01:20:29;;;;;;;1.80;0.80;;;7.30;99.90;;;;;;5023336;28;20179;-66
2024/01/03 01:22:54;;;;;;;1.73;0.90;;;9.30;99.90;;;;;;5031392;28;20293;-66
2024/01/03 01:25:20;;;;;;;1.93;0.60;;;8.80;99.90;;;;;;5008920;28;20179;-66
2024/01/03 01:27:45;;;;;;;1.73;0.70;;;8.00;99.90;;;;;;5011912;28;20282;-66
2024/01/03 01:30:11;;;;;;;1.57;0.70;;;7.80;99.90;;;;;;5011284;28;20203;-66
2024/01/03 01:32:36;;;;;;;1.90;0.90;;;7.30;99.90;;;;;;4995880;28;20286;-66
2024/01/03 01:35:02;;;;;;;1.73;1.00;;;8.60;99.90;;;;;;5011812;28;20195;-66
2024/01/03 01:37:28;;;;;;;9.30;1.27;;;7.40;99.90;;;;;;5023125;28;20184;-66
2024/01/03 01:39:53;;;;;;;1.30;0.80;;;8.50;99.90;;;;;;5018909;28;20685;-67
2024/01/03 01:42:19;;;;;;;3.53;1.23;;;8.80;99.90;;;;;;5015654;28;20203;-66
2024/01/03 01:44:44;;;;;;;4.50;0.80;;;8.20;99.90;;;;;;5009063;28;20183;-67
2024/01/03 01:47:11;;;;;;;3.60;1.20;;;8.50;99.90;;;;;;5010152;28;20267;-65
2024/01/03 01:49:39;;;;;;;1.77;0.83;;;8.40;99.90;;;;;;5015241;28;20269;-65
2024/01/03 01:52:07;;;;;;;3.67;1.10;;;8.80;99.90;;;;;;5020618;28;20444;-67
2024/01/03 01:54:33;;;;;;;1.13;0.50;;;8.50;99.90;;;;;;5020061;28;20457;-66
2024/01/03 01:56:59;;;;;;;2.13;0.50;;;8.30;99.90;;;;;;5023157;28;20996;-65
2024/01/03 01:59:25;;;;;;;1.57;0.70;;;8.80;99.90;;;;;;5026916;28;20214;-65
2024/01/03 02:01:51;;;;;;;1.97;0.80;;;8.60;99.90;;;;;;5014507;28;20811;-65
2024/01/03 02:04:17;;;;;;;3.63;0.60;;;8.50;99.90;;;;;;5013952;28;20234;-65
2024/01/03 02:06:43;;;;;;;1.30;0.50;;;8.80;99.90;;;;;;5015062;28;20416;-65
2024/01/03 02:09:09;;;;;;;1.43;0.60;;;7.30;99.90;;;;;;5021477;28;20266;-65
2024/01/03 02:11:46;;;;;;;1.20;0.60;;;7.60;99.90;;;;;;5026924;28;20444;-65
2024/01/03 02:14:11;;;;;;;1.10;0.47;;;7.10;99.90;;;;;;5022309;28;20418;-65
2024/01/03 02:16:37;;;;;;;1.10;0.40;;;7.00;99.90;;;;;;5020009;28;20425;-65
2024/01/03 02:19:05;;;;;;;1.47;0.67;;;7.50;99.90;;;;;;5019078;28;20461;-65
2024/01/03 02:21:31;;;;;;;1.30;0.50;;;7.40;99.90;;;;;;5034022;28;20214;-65
2024/01/03 02:23:57;;;;;;;1.00;0.40;;;7.50;99.90;;;;;;5034526;28;20432;-65
2024/01/03 02:26:22;;;;;;;1.07;0.47;;;7.70;99.90;;;;;;5024617;28;20360;-65
2024/01/03 02:28:48;;;;;;;1.17;0.53;;;7.60;99.90;;;;;;5014466;28;20191;-65
2024/01/03 02:31:13;;;;;;;1.17;0.50;;;6.90;99.90;;;;;;5016245;28;20191;-66
2024/01/03 02:33:39;;;;;;;1.00;0.40;;;8.20;99.90;;;;;;5016142;28;20180;-66
2024/01/03 02:36:05;;;;;;;1.10;0.50;;;7.10;99.90;;;;;;5021969;28;20194;-66
2024/01/03 02:38:30;;;;;;;1.67;0.53;;;6.90;99.90;;;;;;5014396;28;20234;-66
2024/01/03 02:40:56;;;;;;;1.00;0.43;;;7.00;99.90;;;;;;5022117;28;20920;-66
2024/01/03 02:43:21;;;;;;;1.20;0.47;;;8.00;99.90;;;;;;5030807;28;20186;-66
2024/01/03 02:45:47;;;;;;;1.30;0.50;;;8.60;99.90;;;;;;5019489;28;20195;-66
2024/01/03 02:48:12;;;;;;;1.13;0.50;;;8.50;99.90;;;;;;5014296;28;20195;-66
2024/01/03 02:50:39;;;;;;;3.20;0.60;;;7.70;99.90;;;;;;5013799;28;20183;-65
2024/01/03 02:53:05;;;;;;;1.00;0.40;;;8.60;99.90;;;;;;5020850;28;20669;-65
2024/01/03 02:55:30;;;;;;;1.20;0.60;;;8.50;99.90;;;;;;5014170;28;20434;-67
2024/01/03 02:57:56;;;;;;;1.53;0.60;;;8.60;99.90;;;;;;5013853;28;20272;-67
2024/01/03 03:00:22;;;;;;;1.60;0.70;;;8.50;99.90;;;;;;5023217;28;20193;-66
2024/01/03 03:02:47;;;;;;;1.67;0.60;;;7.20;99.90;;;;;;5013777;28;20203;-66
2024/01/03 03:05:13;;;;;;;1.97;0.77;;;8.30;99.90;;;;;;5015994;28;20635;-66
2024/01/03 03:07:38;;;;;;;2.27;0.60;;;7.20;99.90;;;;;;5018240;28;20190;-65
2024/01/03 03:10:04;;;;;;;2.23;1.03;;;7.40;99.90;;;;;;5031086;28;20190;-65
2024/01/03 03:12:29;;;;;;;2.43;0.57;;;7.30;99.90;;;;;;5031278;28;20196;-65
2024/01/03 03:14:55;;;;;;;1.27;0.70;;;8.20;99.90;;;;;;5021721;28;20389;-66
2024/01/03 03:17:21;;;;;;;6.47;1.20;;;8.70;99.90;;;;;;5032959;28;20232;-66
2024/01/03 03:19:46;;;;;;;1.40;0.73;;;7.30;99.90;;;;;;5024875;28;20530;-66
2024/01/03 03:22:13;;;;;;;1.27;0.77;;;8.30;99.90;;;;;;5012072;28;20562;-66
2024/01/03 03:24:38;;;;;;;2.37;0.90;;;7.20;99.90;;;;;;5008035;28;20262;-66
2024/01/03 03:27:04;;;;;;;2.93;0.80;;;7.30;99.90;;;;;;5012975;28;20505;-66
2024/01/03 03:29:30;;;;;;;1.83;0.87;;;8.80;99.90;;;;;;5013539;28;20539;-66
2024/01/03 03:31:55;;;;;;;2.70;0.70;;;8.40;99.90;;;;;;5019855;28;20182;-66
2024/01/03 03:34:21;;;;;;;3.73;0.60;;;7.30;99.90;;;;;;5013549;28;20202;-66
2024/01/03 03:36:47;;;;;;;1.40;0.70;;;7.90;99.90;;;;;;5031898;28;20187;-66
2024/01/03 03:39:12;;;;;;;1.10;0.50;;;8.20;99.90;;;;;;5013343;28;20179;-67
2024/01/03 03:41:38;;;;;;;1.10;0.60;;;7.50;99.90;;;;;;5025719;28;20472;-66
2024/01/03 03:44:04;;;;;;;1.50;0.80;;;7.50;99.90;;;;;;5013083;28;20191;-66
2024/01/03 03:46:29;;;;;;;1.27;0.70;;;7.10;99.90;;;;;;5024930;28;20547;-66
2024/01/03 03:48:55;;;;;;;1.20;0.70;;;8.50;99.90;;;;;;5032791;28;20543;-66
2024/01/03 03:51:20;;;;;;;3.67;0.90;;;8.10;99.90;;;;;;5018409;28;20194;-67
2024/01/03 03:53:46;;;;;;;1.57;0.70;;;6.90;99.90;;;;;;5013076;28;20183;-66
2024/01/03 03:56:24;;;;;;;1.60;0.87;;;7.90;99.90;;;;;;5011566;28;20201;-66
2024/01/03 03:58:49;;;;;;;1.93;0.80;;;7.00;99.90;;;;;;5013784;28;20233;-66
2024/01/03 04:01:15;;;;;;;2.13;0.87;;;6.90;99.90;;;;;;5005233;28;20458;-67
2024/01/03 04:03:40;;;;;;;6.90;0.83;;;7.80;99.90;;;;;;5012915;28;20187;-66
2024/01/03 04:06:06;;;;;;;1.87;1.00;;;6.90;99.90;;;;;;5021560;28;20192;-66
2024/01/03 04:08:31;;;;;;;1.87;0.60;;;6.90;99.90;;;;;;5014869;28;20632;-67
2024/01/03 04:10:57;;;;;;;1.63;0.67;;;7.70;99.90;;;;;;5015130;28;20287;-66
2024/01/03 04:13:23;;;;;;;2.87;0.77;;;7.70;99.90;;;;;;5010491;28;20191;-66
2024/01/03 04:15:48;;;;;;;1.00;0.50;;;7.80;99.90;;;;;;5012694;28;20270;-66
2024/01/03 04:18:14;;;;;;;1.10;0.57;;;6.80;99.90;;;;;;5013085;28;20233;-66
2024/01/03 04:20:39;;;;;;;1.97;0.63;;;7.40;99.90;;;;;;5010537;28;20658;-66
2024/01/03 04:23:05;;;;;;;2.57;0.70;;;7.40;99.90;;;;;;5019350;28;20260;-68
2024/01/03 04:25:30;;;;;;;1.50;0.90;;;6.60;99.90;;;;;;5017487;28;20609;-69
2024/01/03 04:27:56;;;;;;;6.70;1.00;;;7.60;99.90;;;;;;5020178;28;20188;-66
2024/01/03 04:30:21;;;;;;;1.30;0.70;;;7.40;99.90;;;;;;5023925;28;20233;-65
2024/01/03 04:32:47;;;;;;;1.47;0.67;;;7.80;99.90;;;;;;5032586;28;20213;-66
2024/01/03 04:35:12;;;;;;;2.33;0.70;;;7.60;99.90;;;;;;5014423;28;20278;-66
2024/01/03 04:37:38;;;;;;;1.97;0.50;;;6.90;99.90;;;;;;5018365;28;20190;-66
2024/01/03 04:40:04;;;;;;;4.17;1.20;;;7.40;99.90;;;;;;5017881;28;20195;-66
2024/01/03 04:42:29;;;;;;;1.10;0.57;;;6.80;99.90;;;;;;5017119;28;20202;-66
2024/01/03 04:44:55;;;;;;;5.53;1.07;;;6.90;99.90;;;;;;5009467;28;20650;-66
2024/01/03 04:47:20;;;;;;;1.60;0.60;;;7.80;99.90;;;;;;5015342;28;20194;-66
2024/01/03 04:49:46;;;;;;;1.00;0.50;;;7.50;99.90;;;;;;5030569;28;20183;-66
2024/01/03 04:52:11;;;;;;;1.93;0.70;;;7.70;99.90;;;;;;5014415;28;20191;-67
2024/01/03 04:54:37;;;;;;;4.30;1.13;;;7.80;99.90;;;;;;5031023;28;20236;-66
2024/01/03 04:57:03;;;;;;;3.57;0.70;;;6.90;99.90;;;;;;5005154;28;20274;-66
2024/01/03 04:59:28;;;;;;;1.17;0.53;;;7.00;99.90;;;;;;5014115;28;20624;-66
2024/01/03 05:01:54;;;;;;;4.83;0.70;;;6.90;99.90;;;;;;5008131;28;20602;-66
2024/01/03 05:04:19;;;;;;;6.13;1.53;;;7.50;99.90;;;;;;5002818;28;20197;-66
2024/01/03 05:06:45;;;;;;;5.33;1.10;;;7.60;99.90;;;;;;5015097;28;20582;-66
2024/01/03 05:09:10;;;;;;;1.63;0.80;;;7.60;99.90;;;;;;5018686;28;20197;-67
2024/01/03 05:11:36;;;;;;;1.77;0.60;;;7.40;99.90;;;;;;5023869;28;20197;-66
2024/01/03 05:14:01;;;;;;;3.20;0.93;;;7.90;99.90;;;;;;4987734;28;20218;-66
2024/01/03 05:16:27;;;;;;;2.13;1.07;;;7.40;99.90;;;;;;5013398;28;20650;-66
2024/01/03 05:18:52;;;;;;;2.70;0.70;;;8.30;99.90;;;;;;5015384;28;20188;-67
2024/01/03 05:21:18;;;;;;;13.27;1.27;;;8.30;99.90;;;;;;5030701;28;20214;-66
2024/01/03 05:23:43;;;;;;;2.07;0.90;;;7.40;99.90;;;;;;5032190;28;20574;-67
2024/01/03 05:26:09;;;;;;;6.83;1.17;;;8.30;99.90;;;;;;5023285;28;20552;-66
2024/01/03 05:28:35;;;;;;;6.43;1.37;;;7.40;99.90;;;;;;5012071;28;20206;-67
2024/01/03 05:31:00;;;;;;;12.97;1.53;;;7.90;99.90;;;;;;5031540;28;20459;-66
2024/01/03 05:33:26;;;;;;;4.87;1.30;;;8.30;99.90;;;;;;5015540;28;20238;-67
2024/01/03 05:35:51;;;;;;;14.00;2.10;;;8.70;99.90;;;;;;5026975;28;20197;-67
2024/01/03 05:38:17;;;;;;;4.13;1.17;;;7.60;99.90;;;;;;5001044;28;20190;-67
2024/01/03 05:40:43;;;;;;;4.40;1.13;;;8.10;99.90;;;;;;5024198;28;20766;-67
2024/01/03 05:43:11;;;;;;;2.07;0.83;;;8.40;99.90;;;;;;5020404;28;20212;-67
2024/01/03 05:45:36;;;;;;;4.83;1.43;;;8.70;99.90;;;;;;5016953;28;20220;-68
2024/01/03 05:48:02;;;;;;;3.60;1.27;;;7.40;99.90;;;;;;5030294;28;20479;-67
2024/01/03 05:50:27;;;;;;;4.13;1.20;;;7.40;99.90;;;;;;5015429;28;20183;-67
2024/01/03 05:52:53;;;;;;;5.07;1.17;;;7.40;99.90;;;;;;5031006;28;20182;-67
2024/01/03 05:55:18;;;;;;;2.33;0.73;;;8.40;99.90;;;;;;5012018;28;20226;-67
2024/01/03 05:57:44;;;;;;;2.80;1.40;;;8.30;99.90;;;;;;5009238;28;20241;-67
2024/01/03 06:00:10;;;;;;;1.40;0.63;;;7.50;99.90;;;;;;5004552;28;20278;-68
2024/01/03 06:02:36;;;;;;;2.23;0.87;;;7.50;99.90;;;;;;5025500;28;20222;-68
2024/01/03 06:05:01;;;;;;;4.63;0.60;;;8.10;99.90;;;;;;5007511;28;20470;-68
2024/01/03 06:07:27;;;;;;;1.20;0.53;;;8.40;99.90;;;;;;5011767;28;20194;-68
2024/01/03 06:09:52;;;;;;;2.03;0.90;;;8.00;99.90;;;;;;5011697;28;20195;-67
2024/01/03 06:12:18;;;;;;;1.20;0.50;;;7.50;99.90;;;;;;5011858;28;20202;-68
2024/01/03 06:14:43;;;;;;;3.50;0.90;;;8.30;99.90;;;;;;5026152;28;20247;-68
2024/01/03 06:17:09;;;;;;;1.60;0.70;;;8.10;99.90;;;;;;5017834;28;20191;-68
2024/01/03 06:19:34;;;;;;;6.67;1.00;;;7.30;99.90;;;;;;5024998;28;20221;-68
2024/01/03 06:22:00;;;;;;;1.10;0.60;;;7.20;99.90;;;;;;5017546;28;20664;-67
2024/01/03 06:24:25;;;;;;;3.73;0.90;;;8.50;99.90;;;;;;5023605;28;20178;-67
2024/01/03 06:26:51;;;;;;;3.60;0.87;;;8.40;99.90;;;;;;5033956;28;20675;-67
2024/01/03 06:29:16;;;;;;;1.47;0.87;;;8.20;99.90;;;;;;5015497;28;20187;-67
2024/01/03 06:31:42;;;;;;;3.53;0.87;;;8.10;99.90;;;;;;5020631;28;20190;-67
2024/01/03 06:34:07;;;;;;;1.87;0.90;;;7.10;99.90;;;;;;5025960;28;20214;-67
2024/01/03 06:36:33;;;;;;;1.20;0.50;;;7.20;99.90;;;;;;5027320;28;20197;-67
2024/01/03 06:38:58;;;;;;;1.97;0.60;;;7.70;99.90;;;;;;5028759;28;20272;-67
2024/01/03 06:41:24;;;;;;;3.83;1.33;;;8.30;99.90;;;;;;5026469;28;20292;-67
2024/01/03 06:43:49;;;;;;;2.10;0.80;;;7.20;99.90;;;;;;5015334;28;20580;-67
2024/01/03 06:46:15;;;;;;;2.23;0.73;;;7.70;99.90;;;;;;5014346;28;20560;-68
2024/01/03 06:48:40;;;;;;;7.13;0.70;;;7.60;99.90;;;;;;5014980;28;20183;-67
2024/01/03 06:51:06;;;;;;;4.80;1.17;;;7.90;99.90;;;;;;5023471;28;20182;-68
2024/01/03 06:53:32;;;;;;;1.73;0.70;;;7.90;99.90;;;;;;5034675;28;20182;-68
2024/01/03 06:55:57;;;;;;;2.27;1.10;;;7.10;99.90;;;;;;5022307;28;20179;-68
2024/01/03 06:58:23;;;;;;;7.93;1.37;;;7.20;99.90;;;;;;5012200;28;20254;-68
2024/01/03 07:00:48;;;;;;;2.10;0.60;;;8.10;99.90;;;;;;5007237;28;20188;-68
2024/01/03 07:03:15;;;;;;;1.67;0.70;;;7.90;99.90;;;;;;5014958;28;20257;-68
2024/01/03 07:05:41;;;;;;;1.70;0.80;;;7.90;99.90;;;;;;5007511;28;20191;-69
2024/01/03 07:08:07;;;;;;;1.97;0.70;;;7.20;99.90;;;;;;5025755;28;20488;-68
2024/01/03 07:10:34;;;;;;;2.30;0.57;;;7.30;99.90;;;;;;5002061;28;20204;-68
2024/01/03 07:13:00;;;;;;;6.30;0.80;;;7.40;99.90;;;;;;5013650;28;20420;-68
2024/01/03 07:15:27;;;;;;;1.77;0.80;;;7.40;99.90;;;;;;5015675;28;20209;-68
2024/01/03 07:17:55;;;;;;;2.07;0.67;;;7.30;99.90;;;;;;5026948;28;20426;-67
2024/01/03 07:20:21;;;;;;;2.17;0.70;;;7.30;99.90;;;;;;5024959;28;20448;-67
2024/01/03 07:22:47;;;;;;;2.30;0.87;;;8.20;99.90;;;;;;5014214;28;20496;-68
2024/01/03 07:25:12;;;;;;;1.20;0.50;;;8.30;99.90;;;;;;5019588;28;20426;-68
2024/01/03 07:27:38;;;;;;;3.80;0.50;;;8.20;99.90;;;;;;5025535;28;20213;-67
2024/01/03 07:30:04;;;;;;;2.07;0.90;;;8.20;99.90;;;;;;5026985;28;20512;-67
2024/01/03 07:32:30;;;;;;;1.30;0.63;;;7.50;99.90;;;;;;5013697;28;20586;-67
2024/01/03 07:34:55;;;;;;;3.40;1.27;;;8.20;99.90;;;;;;5018904;28;20483;-68
2024/01/03 07:37:21;;;;;;;3.17;1.30;;;7.90;99.90;;;;;;5015922;28;20298;-68
2024/01/03 07:39:46;;;;;;;4.07;0.70;;;7.80;99.90;;;;;;5002319;28;20617;-67
2024/01/03 07:42:12;;;;;;;1.67;0.70;;;8.50;99.90;;;;;;5013215;28;20206;-68
2024/01/03 07:44:41;;;;;;;9.57;1.00;;;8.60;99.90;;;;;;5004850;28;20187;-68
2024/01/03 07:47:10;;;;;;;4.60;0.90;;;7.60;99.90;;;;;;5007099;28;20278;-68
2024/01/03 07:49:37;;;;;;;1.57;0.70;;;7.60;99.90;;;;;;5018914;28;20434;-67
2024/01/03 07:52:03;;;;;;;2.90;1.00;;;8.30;99.90;;;;;;5004063;28;20433;-68
2024/01/03 07:54:28;;;;;;;1.30;0.60;;;7.70;99.90;;;;;;5018530;28;20808;-68
2024/01/03 07:56:54;;;;;;;6.10;1.03;;;8.80;99.90;;;;;;5013500;28;20466;-68
2024/01/03 07:59:19;;;;;;;3.63;0.70;;;9.10;99.90;;;;;;5015437;28;20233;-67
2024/01/03 08:01:45;;;;;;;1.37;0.70;;;8.60;99.90;;;;;;5006809;28;20555;-67
2024/01/03 08:04:10;;;;;;;1.60;0.70;;;7.80;99.90;;;;;;5007748;28;20179;-68
2024/01/03 08:06:36;;;;;;;5.43;0.67;;;8.90;99.90;;;;;;5017328;28;20547;-68
2024/01/03 08:09:01;;;;;;;5.10;0.90;;;8.90;99.90;;;;;;5009456;28;20183;-68
2024/01/03 08:11:27;;;;;;;3.93;1.83;;;8.00;99.90;;;;;;5008359;28;20525;-68
2024/01/03 08:13:52;;;;;;;3.83;0.60;;;8.70;99.90;;;;;;4995870;28;20227;-67
2024/01/03 08:16:18;;;;;;;1.33;0.80;;;8.60;99.90;;;;;;5012470;28;20195;-68
2024/01/03 08:18:44;;;;;;;4.97;1.17;;;9.00;99.90;;;;;;5012325;28;20206;-68
2024/01/03 08:21:10;;;;;;;3.67;1.33;;;8.80;99.90;;;;;;5002197;28;20193;-68
2024/01/03 08:23:35;;;;;;;2.53;1.07;;;8.80;99.90;;;;;;5013023;28;20502;-68
2024/01/03 08:26:08;;;;;;;1.50;0.63;;;8.20;99.90;;;;;;5007570;28;20516;-67
2024/01/03 08:28:36;;;;;;;2.17;1.20;;;8.20;99.90;;;;;;5013131;28;20257;-68
2024/01/03 08:31:02;;;;;;;3.57;0.80;;;8.80;99.90;;;;;;5023889;28;20766;-67
2024/01/03 08:33:27;;;;;;;2.33;0.70;;;8.30;99.90;;;;;;5005430;28;21022;-68
2024/01/03 08:35:53;;;;;;;4.30;1.30;;;9.20;99.90;;;;;;5012554;28;20194;-67
2024/01/03 08:38:18;;;;;;;2.23;0.90;;;8.90;99.90;;;;;;5012576;28;20591;-68
2024/01/03 08:40:44;;;;;;;5.00;0.80;;;9.30;99.90;;;;;;5012794;28;20206;-68
2024/01/03 08:43:09;;;;;;;1.40;0.70;;;9.10;99.90;;;;;;5003063;28;20204;-67
2024/01/03 08:45:35;;;;;;;3.20;0.90;;;8.20;99.90;;;;;;5012813;28;20214;-67
2024/01/03 08:48:03;;;;;;;1.10;0.60;;;8.90;99.90;;;;;;5019035;28;20175;-68
2024/01/03 08:50:28;;;;;;;11.83;1.20;;;8.70;99.90;;;;;;5016276;28;20175;-70
2024/01/03 08:52:54;;;;;;;1.00;0.50;;;8.80;99.90;;;;;;5017242;28;20464;-68
2024/01/03 08:55:19;;;;;;;6.43;1.10;;;8.00;99.90;;;;;;5031686;28;20297;-68
2024/01/03 08:57:52;;;;;;;2.30;0.73;;;9.00;99.90;;;;;;5023107;28;20646;-68
2024/01/03 09:00:18;;;;;;;4.10;0.50;;;7.90;99.90;;;;;;5000048;28;20180;-68
2024/01/03 09:02:44;;;;;;;2.70;0.90;;;7.80;99.90;;;;;;5020842;28;21009;-68
2024/01/03 09:05:09;;;;;;;2.27;0.60;;;8.70;99.90;;;;;;5001665;28;20205;-68
2024/01/03 09:07:35;;;;;;;7.43;0.83;;;8.80;99.90;;;;;;5018908;28;20183;-68
2024/01/03 09:10:00;;;;;;;3.53;0.70;;;7.70;99.90;;;;;;5020679;28;20693;-68
2024/01/03 09:12:26;;;;;;;3.50;0.97;;;9.20;99.90;;;;;;5016993;28;20261;-68
2024/01/03 09:14:51;;;;;;;6.10;0.90;;;8.80;99.90;;;;;;5009128;28;20218;-68
2024/01/03 09:17:17;;;;;;;1.20;0.57;;;8.70;99.90;;;;;;5004100;28;20648;-68
2024/01/03 09:19:42;;;;;;;1.63;0.70;;;8.70;99.90;;;;;;5012226;28;20214;-68
2024/01/03 09:22:07;;;;;;;1.90;0.80;;;7.90;99.90;;;;;;5009659;28;20213;-69
2024/01/03 09:24:33;;;;;;;6.10;0.90;;;8.80;99.90;;;;;;5006390;28;20706;-62
2024/01/03 09:27:00;;;;;;;2.93;0.97;;;7.90;99.90;;;;;;5019019;28;20183;-62
2024/01/03 09:29:26;;;;;;;2.07;0.70;;;7.90;99.90;;;;;;5015804;28;20179;-61
2024/01/03 09:31:51;;;;;;;5.80;1.13;;;8.40;99.90;;;;;;5009446;28;20449;-64
2024/01/03 09:34:17;;;;;;;1.77;0.70;;;8.10;99.90;;;;;;5009163;28;20691;-67
2024/01/03 09:36:42;;;;;;;1.10;0.53;;;8.60;99.90;;;;;;5006024;28;20190;-71
2024/01/03 09:39:08;;;;;;;4.20;1.00;;;8.20;99.90;;;;;;5017467;28;20309;-68
2024/01/03 09:41:34;;;;;;;5.60;1.30;;;8.30;99.90;;;;;;5016417;28;20306;-68
2024/01/03 09:44:01;;;;;;;2.10;0.70;;;8.50;99.90;;;;;;4994773;28;20419;-68
2024/01/03 09:46:26;;;;;;;4.80;0.80;;;8.40;99.90;;;;;;5010703;28;20429;-68
2024/01/03 09:48:52;;;;;;;2.03;0.50;;;8.40;99.90;;;;;;5020028;28;20434;-68
2024/01/03 09:51:19;;;;;;;1.63;0.70;;;8.50;99.90;;;;;;5021100;28;20187;-68
2024/01/03 09:53:45;;;;;;;4.10;0.70;;;8.30;99.90;;;;;;5011546;28;20179;-68
2024/01/03 09:56:11;;;;;;;3.77;1.10;;;8.20;99.90;;;;;;5010328;28;20491;-69
2024/01/03 09:58:37;;;;;;;2.30;0.70;;;8.30;99.90;;;;;;5001989;28;21021;-68
2024/01/03 10:01:02;;;;;;;3.53;0.83;;;8.50;99.90;;;;;;5004744;28;20267;-68
2024/01/03 10:03:28;;;;;;;1.47;0.60;;;8.00;99.90;;;;;;5007903;28;20548;-69
2024/01/03 10:06:13;;;;;;;1.20;0.60;;;8.10;99.90;;;;;;5011679;28;20194;-69
2024/01/03 10:08:55;;;;;;;5.07;0.83;;;8.10;99.90;;;;;;5014350;28;20187;-69
2024/01/03 10:11:21;;;;;;;7.23;1.03;;;8.20;99.90;;;;;;5026980;28;20903;-68
2024/01/03 10:13:52;;;;;;;3.93;1.00;;;8.10;99.90;;;;;;5020531;28;20423;-68
2024/01/03 10:16:28;;;;;;;2.13;0.80;;;8.20;99.90;;;;;;5001078;28;20183;-69
2024/01/03 10:19:16;;;;;;;1.83;0.80;;;8.40;99.90;;;;;;5020211;28;20413;-69
2024/01/03 10:21:54;;;;;;;2.10;1.00;;;8.00;99.90;;;;;;5013486;28;20797;-69
2024/01/03 10:24:24;;;;;;;1.87;0.60;;;8.10;99.90;;;;;;5027002;28;20540;-68
2024/01/03 10:26:50;;;;;;;3.57;1.10;;;8.30;99.90;;;;;;5020524;28;20508;-69
2024/01/03 10:29:18;;;;;;;6.60;0.80;;;8.40;99.90;;;;;;5001250;28;20428;-68
2024/01/03 10:31:44;;;;;;;6.30;1.43;;;8.20;99.90;;;;;;5009497;28;20456;-68
2024/01/03 10:34:15;;;;;;;1.40;0.73;;;8.30;99.90;;;;;;5011685;28;20493;-68
2024/01/03 10:36:42;;;;;;;1.27;0.70;;;8.20;99.90;;;;;;5013393;28;20790;-67
2024/01/03 10:39:13;;;;;;;3.93;1.17;;;8.30;99.90;;;;;;5023789;28;20785;-68
2024/01/03 10:41:40;;;;;;;1.50;0.70;;;8.30;99.90;;;;;;5025474;28;20551;-67
2024/01/03 10:44:08;;;;;;;1.33;0.60;;;8.70;99.90;;;;;;5021940;28;20417;-68
2024/01/03 10:46:34;;;;;;;1.20;0.50;;;8.30;99.90;;;;;;5017569;28;20450;-67
2024/01/03 10:49:01;;;;;;;2.70;0.90;;;8.80;99.90;;;;;;5021409;28;20984;-68
2024/01/03 10:51:32;;;;;;;8.97;1.23;;;8.40;99.90;;;;;;5019089;28;20282;-68
2024/01/03 10:53:59;;;;;;;1.20;0.60;;;8.80;99.90;;;;;;5009936;28;20422;-68
2024/01/03 10:56:25;;;;;;;2.93;0.87;;;8.50;99.90;;;;;;5021253;28;20488;-68
2024/01/03 10:58:52;;;;;;;2.63;1.00;;;8.80;99.90;;;;;;5018450;28;20532;-68
2024/01/03 11:01:29;;;;;;;2.03;0.60;;;8.70;99.90;;;;;;5005660;28;20182;-68
2024/01/03 11:04:02;;;;;;;1.60;0.47;;;8.70;99.90;;;;;;4992350;28;20427;-68
2024/01/03 11:06:45;;;;;;;2.90;0.90;;;8.80;99.90;;;;;;4997661;28;20465;-68
2024/01/03 11:09:11;;;;;;;1.10;0.50;;;8.90;99.90;;;;;;5014997;28;20517;-68
2024/01/03 11:11:38;;;;;;;4.43;1.47;;;8.90;99.90;;;;;;5023798;28;20844;-68
2024/01/03 11:14:19;;;;;;;6.60;0.90;;;8.80;99.90;;;;;;5014702;28;20182;-68
2024/01/03 11:16:45;;;;;;;1.67;0.70;;;8.90;99.90;;;;;;4999294;28;20434;-69
2024/01/03 11:19:10;;;;;;;1.13;0.50;;;8.50;99.90;;;;;;5012177;28;20945;-68
2024/01/03 11:21:41;;;;;;;1.40;0.50;;;8.40;99.90;;;;;;5020830;28;20561;-68
2024/01/03 11:24:18;;;;;;;1.10;0.50;;;8.50;99.90;;;;;;5025264;28;20175;-69
2024/01/03 11:27:03;;;;;;;1.20;0.50;;;8.60;99.90;;;;;;5018333;28;20424;-68
2024/01/03 11:29:35;;;;;;;3.90;0.77;;;8.70;99.90;;;;;;4998789;28;20417;-68
2024/01/03 11:32:04;;;;;;;5.27;0.70;;;8.80;99.90;;;;;;5004604;28;20433;-68
2024/01/03 11:34:48;;;;;;;1.70;0.90;;;8.90;99.90;;;;;;5012887;28;21054;-70
2024/01/03 11:37:16;;;;;;;10.73;0.80;;;8.90;99.90;;;;;;5012843;28;20402;-69
2024/01/03 11:39:45;;;;;;;1.87;0.80;;;9.10;99.90;;;;;;5013077;28;20501;-69
2024/01/03 11:42:17;;;;;;;3.97;0.90;;;9.20;99.90;;;;;;5012571;28;20595;-69
2024/01/03 11:44:43;;;;;;;6.80;0.90;;;9.30;99.90;;;;;;4999529;28;20435;-69
2024/01/03 11:47:08;;;;;;;4.17;1.07;;;9.30;99.90;;;;;;5011873;28;20414;-69
2024/01/03 11:49:34;;;;;;;7.70;1.57;;;9.40;99.90;;;;;;5006817;28;20202;-68
2024/01/03 11:51:59;;;;;;;1.40;0.50;;;9.30;99.90;;;;;;4994316;28;20187;-69
2024/01/03 11:54:25;;;;;;;1.67;0.80;;;9.20;99.90;;;;;;4993104;28;20203;-69
2024/01/03 11:56:53;;;;;;;3.63;0.83;;;9.20;99.90;;;;;;5001224;28;20188;-69
2024/01/03 11:59:21;;;;;;;12.07;0.60;;;9.20;99.90;;;;;;5010792;28;20187;-69
2024/01/03 12:01:56;;;;;;;3.90;0.77;;;9.10;99.90;;;;;;5006335;28;20465;-68
2024/01/03 12:04:22;;;;;;;5.30;0.90;;;9.00;99.90;;;;;;5007860;28;20484;-69
2024/01/03 12:06:48;;;;;;;2.53;0.93;;;8.90;99.90;;;;;;4999784;28;20415;-68
2024/01/03 12:09:14;;;;;;;5.63;1.00;;;8.70;99.90;;;;;;4991982;28;20215;-68
2024/01/03 12:11:40;;;;;;;9.20;1.47;;;8.70;99.90;;;;;;4999104;28;20197;-70
2024/01/03 12:14:06;;;;;;;1.70;0.60;;;8.80;99.90;;;;;;5010065;28;20414;-69
2024/01/03 12:16:32;;;;;;;2.43;0.73;;;8.80;99.90;;;;;;5009889;28;20414;-69
2024/01/03 12:18:57;;;;;;;3.10;0.73;;;9.00;99.90;;;;;;5000663;28;20427;-69
2024/01/03 12:21:23;;;;;;;1.20;0.50;;;8.90;99.90;;;;;;4994251;28;20184;-69
2024/01/03 12:24:01;;;;;;;1.20;0.63;;;8.80;99.90;;;;;;5005165;28;20191;-70
2024/01/03 12:26:26;;;;;;;1.83;0.57;;;8.70;99.90;;;;;;5010241;28;20537;-70
2024/01/03 12:29:02;;;;;;;1.93;0.60;;;8.70;99.90;;;;;;5026219;28;20425;-70
2024/01/03 12:31:28;;;;;;;1.20;0.40;;;8.60;99.90;;;;;;5022829;28;20174;-70
2024/01/03 12:34:05;;;;;;;3.10;0.90;;;8.50;99.90;;;;;;5010701;28;20418;-70
2024/01/03 12:36:31;;;;;;;3.90;0.90;;;8.50;99.90;;;;;;5009564;28;20842;-70
2024/01/03 12:39:00;;;;;;;4.37;0.90;;;8.40;99.90;;;;;;5007586;28;20517;-70
2024/01/03 12:41:26;;;;;;;1.20;0.60;;;8.50;99.90;;;;;;5007298;28;20187;-70
2024/01/03 12:43:51;;;;;;;1.47;0.83;;;8.60;99.90;;;;;;5010092;28;20464;-70
2024/01/03 12:46:17;;;;;;;1.67;0.70;;;8.70;99.90;;;;;;5028436;28;20212;-69
2024/01/03 12:48:44;;;;;;;1.87;0.93;;;8.80;99.90;;;;;;5009430;28;20294;-70
2024/01/03 12:51:10;;;;;;;1.80;0.83;;;9.00;99.90;;;;;;5009593;28;20175;-70
2024/01/03 12:53:36;;;;;;;1.20;0.50;;;9.10;99.90;;;;;;5027561;28;20435;-70
2024/01/03 12:56:02;;;;;;;1.63;0.80;;;9.40;99.90;;;;;;5019782;28;20189;-70